createdAt,value
2023-04-19T00:02:35.284Z,16.42
2023-04-19T00:05:38.390Z,16.85
2023-04-19T00:08:40.030Z,17.02
2023-04-19T00:11:41.577Z,15.82
2023-04-19T00:14:43.171Z,15.38
2023-04-19T00:17:44.924Z,17.55
2023-04-19T00:20:46.601Z,15.80
2023-04-19T00:23:48.161Z,17.98
2023-04-19T00:26:49.741Z,15.13
2023-04-19T00:29:51.801Z,16.80
2023-04-19T00:32:53.421Z,17.70
2023-04-19T00:35:54.992Z,14.45
2023-04-19T00:38:56.608Z,17.90
2023-04-19T00:41:58.478Z,14.68
2023-04-19T00:45:00.156Z,15.25
2023-04-19T00:48:02.044Z,15.98
2023-04-19T00:51:04.312Z,14.40
2023-04-19T00:54:07.675Z,13.93
2023-04-19T00:57:09.464Z,13.13
2023-04-19T01:00:11.673Z,13.60
2023-04-19T01:03:13.681Z,17.33
2023-04-19T01:06:15.899Z,16.52
2023-04-19T01:09:17.521Z,15.02
2023-04-19T01:12:19.114Z,15.48
2023-04-19T01:15:20.978Z,16.27
2023-04-19T01:18:25.630Z,15.32
2023-04-19T01:21:29.346Z,14.98
2023-04-19T01:24:31.272Z,15.75
2023-04-19T01:27:33.213Z,15.07
2023-04-19T01:30:35.605Z,17.42
2023-04-19T01:33:37.208Z,17.00
2023-04-19T01:36:39.028Z,16.25
2023-04-19T01:39:40.781Z,17.13
2023-04-19T01:42:42.715Z,16.48
2023-04-19T01:45:44.398Z,16.45
2023-04-19T01:48:47.031Z,13.50
2023-04-19T01:51:49.846Z,17.58
2023-04-19T01:54:51.475Z,14.82
2023-04-19T01:57:54.825Z,16.63
2023-04-19T02:00:56.725Z,15.25
2023-04-19T02:03:58.536Z,13.07
2023-04-19T02:07:00.925Z,19.05
2023-04-19T02:10:05.961Z,14.50
2023-04-19T02:13:07.606Z,14.43
2023-04-19T02:16:10.530Z,15.27
2023-04-19T02:19:12.132Z,15.68
2023-04-19T02:22:13.730Z,14.48
2023-04-19T02:25:19.382Z,15.55
2023-04-19T02:28:21.462Z,16.00
2023-04-19T02:31:23.515Z,18.92
2023-04-19T02:34:25.211Z,18.33
2023-04-19T02:37:27.602Z,17.90
2023-04-19T02:40:32.080Z,18.20
2023-04-19T02:43:33.808Z,17.25
2023-04-19T02:46:35.496Z,18.77
2023-04-19T02:49:41.317Z,17.55
2023-04-19T02:52:44.073Z,17.77
2023-04-19T02:55:45.655Z,19.05
2023-04-19T02:58:54.698Z,18.08
2023-04-19T03:01:56.364Z,21.55
2023-04-19T03:04:59.526Z,17.95
2023-04-19T03:08:01.233Z,17.35
2023-04-19T03:11:03.293Z,18.70
2023-04-19T03:14:05.944Z,21.17
2023-04-19T03:17:07.570Z,20.80
2023-04-19T03:20:11.920Z,19.63
2023-04-19T03:23:14.121Z,17.70
2023-04-19T03:26:15.982Z,18.30
2023-04-19T03:29:21.130Z,19.95
2023-04-19T03:32:28.483Z,21.13
2023-04-19T03:35:32.198Z,21.35
2023-04-19T03:38:41.364Z,17.75
2023-04-19T03:41:47.344Z,19.42
2023-04-19T03:45:07.729Z,17.27
2023-04-19T03:48:14.799Z,18.13
2023-04-19T03:51:16.808Z,19.63
2023-04-19T03:54:19.433Z,21.15
2023-04-19T03:57:22.127Z,17.20
2023-04-19T04:00:24.699Z,16.83
2023-04-19T04:03:31.677Z,17.42
2023-04-19T04:06:33.439Z,17.10
2023-04-19T04:09:35.276Z,18.15
2023-04-19T04:12:39.873Z,15.20
2023-04-19T04:15:43.498Z,14.77
2023-04-19T04:18:47.338Z,16.33
2023-04-19T04:21:50.412Z,17.17
2023-04-19T04:24:53.822Z,14.70
2023-04-19T04:28:03.002Z,15.73
2023-04-19T04:31:05.915Z,17.15
2023-04-19T04:34:10.025Z,14.40
2023-04-19T04:37:19.206Z,14.43
2023-04-19T04:40:22.647Z,13.52
2023-04-19T04:43:25.871Z,14.45
2023-04-19T04:46:27.851Z,13.98
2023-04-19T04:49:30.792Z,10.40
2023-04-19T04:52:33.350Z,12.73
2023-04-19T04:55:47.550Z,11.82
2023-04-19T04:58:49.737Z,11.40
2023-04-19T05:02:00.615Z,12.27
2023-04-19T05:05:03.293Z,11.47
2023-04-19T05:08:05.264Z,10.33
2023-04-19T05:11:07.429Z,9.52
2023-04-19T05:14:09.352Z,10.68
2023-04-19T05:17:11.056Z,11.48
2023-04-19T05:20:12.911Z,9.13
2023-04-19T05:23:15.752Z,10.00
2023-04-19T05:26:20.071Z,10.25
2023-04-19T05:29:23.724Z,12.48
2023-04-19T05:32:29.878Z,8.52
2023-04-19T05:35:34.080Z,10.57
2023-04-19T05:38:36.474Z,8.83
2023-04-19T05:41:38.333Z,7.78
2023-04-19T05:44:40.988Z,6.17
2023-04-19T05:47:43.427Z,7.53
2023-04-19T05:51:00.420Z,8.23
2023-04-19T05:54:24.966Z,8.02
2023-04-19T05:57:29.542Z,10.20
2023-04-19T06:00:31.735Z,7.82
2023-04-19T06:03:42.410Z,7.00
2023-04-19T06:06:44.382Z,7.32
2023-04-19T06:09:49.476Z,9.38
2023-04-19T06:12:51.169Z,7.82
2023-04-19T06:15:52.973Z,6.68
2023-04-19T06:18:54.661Z,7.32
2023-04-19T06:21:56.406Z,5.95
2023-04-19T06:24:58.024Z,9.27
2023-04-19T06:28:00.184Z,5.50
2023-04-19T06:31:02.879Z,5.47
2023-04-19T06:34:04.611Z,6.68
2023-04-19T06:37:06.624Z,7.75
2023-04-19T06:40:09.385Z,7.85
2023-04-19T06:43:11.279Z,7.80
2023-04-19T06:46:14.491Z,7.03
2023-04-19T06:52:17.815Z,6.22
2023-04-19T06:55:19.713Z,6.53
2023-04-19T06:58:21.439Z,6.93
2023-04-19T07:01:23.399Z,6.05
2023-04-19T07:04:26.935Z,6.40
2023-04-19T07:07:28.710Z,5.57
2023-04-19T07:10:30.339Z,6.05
2023-04-19T07:13:31.939Z,6.82
2023-04-19T07:16:33.955Z,6.68
2023-04-19T07:19:36.434Z,7.05
2023-04-19T07:22:38.076Z,6.73
2023-04-19T07:25:39.678Z,6.72
2023-04-19T07:28:41.362Z,8.40
2023-04-19T07:31:43.107Z,7.95
2023-04-19T07:34:45.910Z,9.40
2023-04-19T07:37:47.444Z,9.70
2023-04-19T07:40:49.149Z,7.30
2023-04-19T07:43:50.734Z,8.18
2023-04-19T07:46:53.139Z,11.38
2023-04-19T07:49:55.986Z,6.17
2023-04-19T07:52:57.542Z,8.25
2023-04-19T07:55:59.280Z,7.55
2023-04-19T07:59:08.141Z,6.40
2023-04-19T08:02:10.887Z,9.05
2023-04-19T08:05:13.603Z,6.07
2023-04-19T08:08:15.263Z,7.13
2023-04-19T08:11:16.849Z,6.85
2023-04-19T08:14:32.381Z,6.90
2023-04-19T08:17:42.604Z,6.88
2023-04-19T08:20:46.796Z,7.32
2023-04-19T08:23:48.847Z,8.05
2023-04-19T08:26:54.113Z,7.18
2023-04-19T08:29:56.140Z,7.00
2023-04-19T08:32:57.741Z,7.97
2023-04-19T08:35:59.345Z,7.82
2023-04-19T08:39:06.595Z,6.78
2023-04-19T08:42:24.656Z,6.95
2023-04-19T08:45:34.771Z,8.02
2023-04-19T08:48:36.884Z,8.07
2023-04-19T08:51:39.042Z,6.75
2023-04-19T08:54:42.168Z,4.90
2023-04-19T08:57:43.738Z,7.45
2023-04-19T09:00:45.396Z,6.32
2023-04-19T09:03:55.990Z,7.00
2023-04-19T09:07:00.900Z,7.32
2023-04-19T09:10:08.067Z,6.88
2023-04-19T09:13:10.072Z,4.55
2023-04-19T09:16:26.884Z,4.60
2023-04-19T09:19:45.936Z,5.15
2023-04-19T09:23:08.822Z,6.00
2023-04-19T09:29:18.709Z,4.57
2023-04-19T09:32:21.066Z,4.60
2023-04-19T09:35:43.415Z,5.95
2023-04-19T09:38:51.535Z,4.13
2023-04-19T09:41:54.165Z,7.00
2023-04-19T09:48:07.626Z,4.72
2023-04-19T09:51:13.804Z,5.25
2023-04-19T09:54:17.857Z,6.15
2023-04-19T09:57:19.812Z,4.32
2023-04-19T10:00:22.882Z,6.53
2023-04-19T10:03:29.540Z,5.35
2023-04-19T10:06:46.282Z,5.82
2023-04-19T10:10:05.032Z,3.20
2023-04-19T10:13:21.124Z,3.67
2023-04-19T10:16:24.738Z,5.18
2023-04-19T10:19:28.144Z,4.60
2023-04-19T10:22:30.109Z,6.05
2023-04-19T10:25:31.730Z,5.53
2023-04-19T10:28:36.164Z,4.25
2023-04-19T10:31:40.984Z,4.68
2023-04-19T10:34:42.856Z,3.83
2023-04-19T10:38:12.177Z,4.25
2023-04-19T10:41:17.569Z,5.45
2023-04-19T10:44:19.290Z,4.40
2023-04-19T10:47:45.917Z,3.72
2023-04-19T10:51:07.579Z,5.00
2023-04-19T10:54:27.347Z,3.78
2023-04-19T10:57:48.884Z,3.67
2023-04-19T11:00:50.615Z,4.15
2023-04-19T11:03:52.376Z,3.95
2023-04-19T11:06:54.147Z,3.50
2023-04-19T11:09:55.772Z,3.17
2023-04-19T11:12:58.215Z,5.00
2023-04-19T11:15:59.816Z,2.60
2023-04-19T11:19:01.509Z,5.18
2023-04-19T11:22:03.113Z,4.60
2023-04-19T11:25:08.989Z,4.97
2023-04-19T11:28:17.340Z,4.78
2023-04-19T11:31:19.992Z,2.78
2023-04-19T11:34:24.821Z,4.55
2023-04-19T11:37:34.188Z,3.08
2023-04-19T11:40:37.603Z,5.53
2023-04-19T11:43:39.464Z,3.10
2023-04-19T11:46:41.213Z,3.78
2023-04-19T11:49:42.996Z,2.95
2023-04-19T11:52:49.471Z,3.00
2023-04-19T11:55:52.057Z,2.80
2023-04-19T11:58:57.917Z,4.28
2023-04-19T12:02:10.797Z,2.22
2023-04-19T12:05:15.374Z,2.15
2023-04-19T12:08:17.114Z,2.30
2023-04-19T12:11:23.306Z,3.95
2023-04-19T12:14:26.723Z,3.05
2023-04-19T12:17:28.408Z,2.30
2023-04-19T12:20:34.980Z,2.30
2023-04-19T12:23:36.745Z,3.25
2023-04-19T12:26:55.837Z,2.63
2023-04-19T12:29:57.953Z,2.53
2023-04-19T12:32:59.983Z,1.70
2023-04-19T12:36:01.580Z,1.70
2023-04-19T12:39:03.655Z,1.48
2023-04-19T12:42:06.222Z,2.07
2023-04-19T12:45:08.465Z,2.78
2023-04-19T12:48:10.052Z,2.00
2023-04-19T12:51:11.683Z,2.33
2023-04-19T12:54:13.973Z,2.17
2023-04-19T12:57:15.549Z,1.98
2023-04-19T13:00:17.473Z,1.42
2023-04-19T13:03:19.316Z,2.28
2023-04-19T13:06:21.353Z,1.40
2023-04-19T13:09:23.006Z,1.55
2023-04-19T13:12:24.800Z,3.05
2023-04-19T13:15:26.462Z,2.10
2023-04-19T13:18:28.151Z,2.35
2023-04-19T13:21:32.318Z,2.22
2023-04-19T13:24:33.875Z,2.90
2023-04-19T13:27:35.532Z,2.65
2023-04-19T13:30:37.211Z,2.78
2023-04-19T13:33:38.876Z,3.83
2023-04-19T13:36:41.169Z,2.25
2023-04-19T13:39:43.168Z,2.40
2023-04-19T13:42:44.736Z,3.80
2023-04-19T13:45:46.680Z,2.28
2023-04-19T13:48:48.312Z,4.22
2023-04-19T13:51:51.111Z,2.58
2023-04-19T13:57:54.341Z,1.83
2023-04-19T14:00:55.989Z,3.15
2023-04-19T14:03:57.807Z,2.90
2023-04-19T14:06:59.611Z,3.80
2023-04-19T14:10:01.308Z,2.83
2023-04-19T14:13:03.296Z,2.35
2023-04-19T14:16:05.192Z,2.95
2023-04-19T14:19:08.697Z,2.38
2023-04-19T14:22:10.315Z,2.40
2023-04-19T14:25:15.013Z,3.00
2023-04-19T14:28:16.574Z,4.03
2023-04-19T14:31:18.885Z,4.65
2023-04-19T14:34:20.555Z,3.47
2023-04-19T14:37:23.654Z,3.38
2023-04-19T14:40:25.368Z,3.38
2023-04-19T14:43:26.982Z,3.00
2023-04-19T14:46:28.563Z,3.05
2023-04-19T14:49:30.267Z,5.03
2023-04-19T14:52:32.063Z,5.38
2023-04-19T14:55:33.717Z,5.75
2023-04-19T14:58:35.512Z,6.47
2023-04-19T15:01:37.135Z,3.22
2023-04-19T15:04:41.079Z,3.30
2023-04-19T15:07:43.169Z,4.38
2023-04-19T15:10:44.738Z,2.97
2023-04-19T15:13:46.457Z,3.78
2023-04-19T15:16:48.101Z,4.43
2023-04-19T15:19:49.697Z,3.45
2023-04-19T15:22:51.487Z,2.58
2023-04-19T15:25:53.310Z,4.28
2023-04-19T15:28:55.895Z,3.58
2023-04-19T15:31:57.654Z,2.10
2023-04-19T15:34:59.324Z,2.45
2023-04-19T15:38:00.865Z,3.47
2023-04-19T15:41:02.495Z,3.80
2023-04-19T15:44:04.207Z,6.47
2023-04-19T15:47:05.773Z,3.78
2023-04-19T15:50:08.053Z,3.60
2023-04-19T15:53:10.095Z,3.40
2023-04-19T15:56:11.712Z,3.65
2023-04-19T15:59:13.501Z,3.38
2023-04-19T16:02:15.152Z,2.92
2023-04-19T16:05:17.014Z,3.28
2023-04-19T16:08:21.728Z,3.72
2023-04-19T16:11:23.411Z,3.83
2023-04-19T16:14:24.996Z,3.25
2023-04-19T16:17:26.567Z,3.95
2023-04-19T16:20:28.216Z,4.18
2023-04-19T16:23:30.075Z,2.13
2023-04-19T16:26:31.701Z,2.50
2023-04-19T16:29:33.309Z,1.90
2023-04-19T16:32:36.368Z,4.32
2023-04-19T16:38:39.430Z,2.78
2023-04-19T16:41:41.114Z,2.60
2023-04-19T16:44:42.682Z,3.60
2023-04-19T16:47:46.078Z,2.42
2023-04-19T16:50:49.573Z,3.63
2023-04-19T16:56:54.939Z,3.78
2023-04-19T17:00:00.258Z,4.55
2023-04-19T17:03:03.510Z,3.13
2023-04-19T17:09:08.384Z,2.67
2023-04-19T17:12:10.653Z,3.08
2023-04-19T17:15:15.168Z,3.60
2023-04-19T17:18:16.756Z,2.97
2023-04-19T17:21:18.523Z,2.80
2023-04-19T17:24:20.353Z,3.42
2023-04-19T17:27:21.917Z,2.30
2023-04-19T17:30:23.701Z,5.45
2023-04-19T17:33:25.257Z,2.58
2023-04-19T17:36:26.828Z,3.13
2023-04-19T17:39:29.022Z,6.15
2023-04-19T17:42:30.604Z,4.00
2023-04-19T17:45:32.243Z,3.42
2023-04-19T17:48:34.193Z,3.55
2023-04-19T17:51:36.773Z,3.40
2023-04-19T17:54:38.876Z,4.55
2023-04-19T17:57:40.813Z,3.50
2023-04-19T18:00:44.473Z,4.40
2023-04-19T18:03:46.578Z,3.58
2023-04-19T18:06:53.838Z,3.25
2023-04-19T18:09:56.052Z,3.00
2023-04-19T18:12:57.599Z,3.95
2023-04-19T18:15:59.815Z,4.15
2023-04-19T18:19:01.401Z,2.17
2023-04-19T18:22:03.356Z,3.15
2023-04-19T18:25:05.411Z,4.45
2023-04-19T18:28:07.051Z,3.85
2023-04-19T18:31:11.892Z,3.20
2023-04-19T18:34:13.881Z,2.45
2023-04-19T18:37:16.727Z,3.42
2023-04-19T18:40:18.955Z,4.35
2023-04-19T18:43:20.894Z,3.92
2023-04-19T18:46:22.726Z,2.78
2023-04-19T18:49:24.666Z,3.40
2023-04-19T18:52:26.290Z,3.15
2023-04-19T18:55:33.039Z,3.80
2023-04-19T18:58:35.121Z,2.50
2023-04-19T19:01:36.914Z,3.88
2023-04-19T19:04:52.207Z,15.43
2023-04-19T19:08:02.037Z,5.70
2023-04-19T19:11:29.269Z,3.13
2023-04-19T19:14:28.228Z,5.68
2023-04-19T19:17:29.895Z,3.45
2023-04-19T19:20:31.587Z,5.68
2023-04-19T19:23:38.315Z,1.90
2023-04-19T19:26:44.417Z,2.78
2023-04-19T19:29:49.037Z,2.20
2023-04-19T19:32:51.363Z,7.75
2023-04-19T19:35:53.061Z,7.07
2023-04-19T19:38:54.613Z,9.05
2023-04-19T19:42:06.087Z,6.00
2023-04-19T19:45:09.536Z,6.22
2023-04-19T19:48:11.698Z,13.13
2023-04-19T19:51:44.354Z,6.53
2023-04-19T19:54:34.942Z,8.65
2023-04-19T20:00:47.098Z,7.43
2023-04-19T20:03:51.477Z,6.00
2023-04-19T20:09:58.197Z,6.63
2023-04-19T20:13:01.492Z,5.15
2023-04-19T20:19:09.606Z,5.22
2023-04-19T20:22:12.538Z,4.25
2023-04-19T20:25:14.597Z,6.25
2023-04-19T20:28:16.246Z,18.58
2023-04-19T20:31:18.220Z,21.70
2023-04-19T20:34:19.879Z,7.72
2023-04-19T20:37:23.400Z,9.30
2023-04-19T20:40:25.000Z,9.93
2023-04-19T20:43:26.562Z,3.80
2023-04-19T20:46:28.264Z,4.20
2023-04-19T20:49:29.911Z,5.05
2023-04-19T20:52:31.522Z,8.80
2023-04-19T20:55:33.080Z,9.93
2023-04-19T20:58:35.091Z,6.30
2023-04-19T21:01:37.054Z,3.53
2023-04-19T21:04:38.707Z,6.53
2023-04-19T21:07:40.392Z,6.30
2023-04-19T21:10:41.950Z,7.57
2023-04-19T21:13:43.551Z,3.55
2023-04-19T21:16:45.163Z,3.75
2023-04-19T21:19:46.747Z,2.88
2023-04-19T21:22:48.678Z,4.38
2023-04-19T21:25:50.761Z,3.42
2023-04-19T21:28:52.406Z,6.43
2023-04-19T21:31:54.126Z,6.82
2023-04-19T21:34:56.163Z,5.30
2023-04-19T21:37:57.739Z,3.55
2023-04-19T21:40:59.339Z,6.18
2023-04-19T21:44:00.878Z,8.57
2023-04-19T21:47:02.508Z,7.22
2023-04-19T21:50:04.477Z,7.72
2023-04-19T21:53:06.050Z,4.63
2023-04-19T21:56:08.538Z,5.43
2023-04-19T21:59:10.211Z,6.93
2023-04-19T22:02:11.984Z,3.45
2023-04-19T22:05:13.640Z,6.00
2023-04-19T22:08:17.960Z,4.72
2023-04-19T22:11:20.033Z,6.13
2023-04-19T22:14:23.053Z,5.80
2023-04-19T22:17:24.659Z,3.42
2023-04-19T22:20:26.921Z,4.35
2023-04-19T22:23:28.540Z,4.93
2023-04-19T22:26:30.205Z,6.40
2023-04-19T22:29:32.199Z,5.00
2023-04-19T22:32:33.842Z,5.05
2023-04-19T22:35:35.435Z,4.50
2023-04-19T22:38:37.362Z,4.18
2023-04-19T22:41:38.974Z,6.20
2023-04-19T22:44:40.560Z,5.63
2023-04-19T22:47:42.186Z,5.60
2023-04-19T22:50:45.166Z,4.55
2023-04-19T22:53:46.801Z,5.53
2023-04-19T22:56:48.371Z,4.20
2023-04-19T22:59:49.965Z,5.78
2023-04-19T23:02:51.606Z,5.28
2023-04-19T23:05:54.330Z,4.05
2023-04-19T23:08:56.297Z,5.50
2023-04-19T23:11:58.678Z,5.82
2023-04-19T23:15:00.199Z,6.93
2023-04-19T23:18:03.909Z,5.43
2023-04-19T23:21:06.033Z,8.40
2023-04-19T23:24:07.930Z,5.25
2023-04-19T23:27:09.507Z,4.72
2023-04-19T23:30:11.399Z,6.95
2023-04-19T23:33:13.116Z,4.40
2023-04-19T23:36:14.846Z,4.28
2023-04-19T23:39:16.979Z,5.82
2023-04-19T23:42:18.648Z,5.82
2023-04-19T23:45:20.340Z,3.65
2023-04-19T23:48:21.942Z,7.22
2023-04-19T23:51:23.515Z,5.40
2023-04-19T23:54:27.968Z,5.25
2023-04-19T23:57:29.528Z,7.20
